createdAt,value
2018-01-22T00:00:39.494Z,6.40
2018-01-22T00:03:12.941Z,5.60
2018-01-22T00:05:46.356Z,5.00
2018-01-22T00:08:19.753Z,4.90
2018-01-22T00:10:53.182Z,4.70
2018-01-22T00:13:25.660Z,4.03
2018-01-22T00:15:58.361Z,4.37
2018-01-22T00:18:31.566Z,4.30
2018-01-22T00:21:04.954Z,4.07
2018-01-22T00:23:38.312Z,5.80
2018-01-22T00:26:10.986Z,4.00
2018-01-22T00:28:43.622Z,4.43
2018-01-22T00:31:16.153Z,5.10
2018-01-22T00:33:49.538Z,5.13
2018-01-22T00:36:23.221Z,4.10
2018-01-22T00:38:56.547Z,4.57
2018-01-22T00:41:29.083Z,4.90
2018-01-22T00:44:01.668Z,4.57
2018-01-22T00:46:34.224Z,4.10
2018-01-22T00:49:07.571Z,4.90
2018-01-22T00:51:40.933Z,4.50
2018-01-22T00:54:14.390Z,4.80
2018-01-22T00:56:47.183Z,4.50
2018-01-22T00:59:20.494Z,3.50
2018-01-22T01:01:53.873Z,3.90
2018-01-22T01:04:26.661Z,3.30
2018-01-22T01:06:59.353Z,4.40
2018-01-22T01:09:32.725Z,4.40
2018-01-22T01:12:05.554Z,4.43
2018-01-22T01:14:38.007Z,4.40
2018-01-22T01:17:10.515Z,4.00
2018-01-22T01:19:42.940Z,4.60
2018-01-22T01:22:16.357Z,4.27
2018-01-22T01:24:49.110Z,3.70
2018-01-22T01:27:21.717Z,4.77
2018-01-22T01:29:54.225Z,4.27
2018-01-22T01:32:26.789Z,3.70
2018-01-22T01:34:59.518Z,4.50
2018-01-22T01:37:32.028Z,4.90
2018-01-22T01:40:05.218Z,4.70
2018-01-22T01:42:38.012Z,6.17
2018-01-22T01:45:10.523Z,5.43
2018-01-22T01:47:43.194Z,5.83
2018-01-22T01:50:16.559Z,4.50
2018-01-22T01:52:49.020Z,4.80
2018-01-22T01:55:21.501Z,6.67
2018-01-22T01:57:54.136Z,5.73
2018-01-22T02:00:27.521Z,7.40
2018-01-22T02:03:00.222Z,7.00
2018-01-22T02:05:33.737Z,8.00
2018-01-22T02:08:07.860Z,5.83
2018-01-22T02:10:40.779Z,6.37
2018-01-22T02:13:15.190Z,7.10
2018-01-22T02:15:47.714Z,7.00
2018-01-22T02:18:20.150Z,5.47
2018-01-22T02:20:53.582Z,7.23
2018-01-22T02:23:26.996Z,7.10
2018-01-22T02:25:59.662Z,6.70
2018-01-22T02:28:32.201Z,5.83
2018-01-22T02:31:05.501Z,6.33
2018-01-22T02:33:38.093Z,6.50
2018-01-22T02:36:10.494Z,7.00
2018-01-22T02:38:43.266Z,6.80
2018-01-22T02:41:15.755Z,7.30
2018-01-22T02:43:48.325Z,6.53
2018-01-22T02:46:21.518Z,5.60
2018-01-22T02:48:54.899Z,6.80
2018-01-22T02:51:28.084Z,5.90
2018-01-22T02:54:01.557Z,4.93
2018-01-22T02:56:35.129Z,5.03
2018-01-22T02:59:07.975Z,6.50
2018-01-22T03:01:41.340Z,5.50
2018-01-22T03:04:13.826Z,6.90
2018-01-22T03:06:46.348Z,5.73
2018-01-22T03:09:19.631Z,6.93
2018-01-22T03:11:53.000Z,6.53
2018-01-22T03:14:25.594Z,6.53
2018-01-22T03:16:58.054Z,6.00
2018-01-22T03:19:30.545Z,6.80
2018-01-22T03:22:03.124Z,6.30
2018-01-22T03:24:35.693Z,6.53
2018-01-22T03:27:08.172Z,7.23
2018-01-22T03:29:40.754Z,5.90
2018-01-22T03:32:14.018Z,4.80
2018-01-22T03:34:47.421Z,6.70
2018-01-22T03:37:20.128Z,5.83
2018-01-22T03:39:53.586Z,7.33
2018-01-22T03:42:26.941Z,6.87
2018-01-22T03:44:59.449Z,6.67
2018-01-22T03:47:32.625Z,7.20
2018-01-22T03:50:05.621Z,7.70
2018-01-22T03:52:39.070Z,7.63
2018-01-22T03:55:11.519Z,8.27
2018-01-22T03:57:44.046Z,8.47
2018-01-22T04:00:16.641Z,8.10
2018-01-22T04:02:49.963Z,8.80
2018-01-22T04:05:23.460Z,9.07
2018-01-22T04:07:55.933Z,7.70
2018-01-22T04:10:28.435Z,9.00
2018-01-22T04:13:01.869Z,10.10
2018-01-22T04:15:34.342Z,9.17
2018-01-22T04:18:06.881Z,10.07
2018-01-22T04:20:39.427Z,10.30
2018-01-22T04:23:11.893Z,9.60
2018-01-22T04:25:44.356Z,9.13
2018-01-22T04:28:17.774Z,8.90
2018-01-22T04:30:50.364Z,8.90
2018-01-22T04:33:24.609Z,7.00
2018-01-22T04:35:57.186Z,8.13
2018-01-22T04:38:29.726Z,9.00
2018-01-22T04:41:02.218Z,8.83
2018-01-22T04:43:35.587Z,8.17
2018-01-22T04:46:08.289Z,7.00
2018-01-22T04:48:40.861Z,7.00
2018-01-22T04:51:14.167Z,6.00
2018-01-22T04:53:47.028Z,5.13
2018-01-22T04:56:20.136Z,4.90
2018-01-22T04:58:53.160Z,5.50
2018-01-22T05:01:26.498Z,5.50
2018-01-22T05:03:59.375Z,5.03
2018-01-22T05:06:31.849Z,5.40
2018-01-22T05:09:05.141Z,6.20
2018-01-22T05:11:38.096Z,5.53
2018-01-22T05:14:11.486Z,5.47
2018-01-22T05:16:44.013Z,4.13
2018-01-22T05:19:16.656Z,4.93
2018-01-22T05:21:50.110Z,4.20
2018-01-22T05:24:22.626Z,4.17
2018-01-22T05:26:55.093Z,4.47
2018-01-22T05:29:27.577Z,4.23
2018-01-22T05:32:00.157Z,3.80
2018-01-22T05:34:32.717Z,4.20
2018-01-22T05:37:05.176Z,4.07
2018-01-22T05:39:37.812Z,4.27
2018-01-22T05:42:10.328Z,4.27
2018-01-22T05:44:43.553Z,5.10
2018-01-22T05:47:16.896Z,4.30
2018-01-22T05:49:50.341Z,4.67
2018-01-22T05:52:24.430Z,5.00
2018-01-22T05:54:57.269Z,5.03
2018-01-22T05:57:30.764Z,4.90
2018-01-22T06:00:04.975Z,4.50
2018-01-22T06:02:37.657Z,4.87
2018-01-22T06:05:10.136Z,4.27
2018-01-22T06:07:42.712Z,3.73
2018-01-22T06:10:15.970Z,4.07
2018-01-22T06:12:48.609Z,5.00
2018-01-22T06:15:21.265Z,4.33
2018-01-22T06:17:53.792Z,4.33
2018-01-22T06:20:26.320Z,5.40
2018-01-22T06:22:58.898Z,5.40
2018-01-22T06:25:32.328Z,5.87
2018-01-22T06:28:05.310Z,3.77
2018-01-22T06:30:37.719Z,5.30
2018-01-22T06:33:11.064Z,4.90
2018-01-22T06:35:43.938Z,6.03
2018-01-22T06:38:17.399Z,5.10
2018-01-22T06:40:50.690Z,4.70
2018-01-22T06:43:24.099Z,4.40
2018-01-22T06:45:57.482Z,6.53
2018-01-22T06:48:29.916Z,5.60
2018-01-22T06:51:02.366Z,4.77
2018-01-22T06:53:35.772Z,6.17
2018-01-22T06:56:09.168Z,5.60
2018-01-22T06:58:41.806Z,5.33
2018-01-22T07:01:14.284Z,4.77
2018-01-22T07:03:46.798Z,4.43
2018-01-22T07:06:20.018Z,4.80
2018-01-22T07:08:52.660Z,5.60
2018-01-22T07:11:26.738Z,4.50
2018-01-22T07:14:00.349Z,5.47
2018-01-22T07:16:33.046Z,6.10
2018-01-22T07:19:06.484Z,6.17
2018-01-22T07:21:38.957Z,4.93
2018-01-22T07:24:11.623Z,6.10
2018-01-22T07:26:44.155Z,6.63
2018-01-22T07:29:17.543Z,5.93
2018-01-22T07:31:50.938Z,5.20
2018-01-22T07:34:23.416Z,5.43
2018-01-22T07:36:56.609Z,6.00
2018-01-22T07:39:29.461Z,5.00
2018-01-22T07:42:02.030Z,5.80
2018-01-22T07:44:36.172Z,5.43
2018-01-22T07:47:09.604Z,6.33
2018-01-22T07:49:42.276Z,5.00
2018-01-22T07:52:14.727Z,5.53
2018-01-22T07:54:47.413Z,5.83
2018-01-22T07:57:19.963Z,5.20
2018-01-22T07:59:52.740Z,4.00
2018-01-22T08:02:26.007Z,5.90
2018-01-22T08:04:58.784Z,5.80
2018-01-22T08:07:31.284Z,5.73
2018-01-22T08:10:03.758Z,5.43
2018-01-22T08:12:36.293Z,6.10
2018-01-22T08:15:09.655Z,4.87
2018-01-22T08:17:43.522Z,5.13
2018-01-22T08:20:17.602Z,5.23
2018-01-22T08:22:50.458Z,6.57
2018-01-22T08:25:22.959Z,4.23
2018-01-22T08:27:57.529Z,4.53
2018-01-22T08:30:30.923Z,5.83
2018-01-22T08:33:03.377Z,5.00
2018-01-22T08:35:35.849Z,4.57
2018-01-22T08:38:08.525Z,4.37
2018-01-22T08:40:41.911Z,3.60
2018-01-22T08:43:15.388Z,5.30
2018-01-22T08:45:48.770Z,4.53
2018-01-22T08:48:21.508Z,3.60
2018-01-22T08:50:53.931Z,3.53
2018-01-22T08:53:26.450Z,3.13
2018-01-22T08:55:59.609Z,4.63
2018-01-22T08:58:32.247Z,2.60
2018-01-22T09:01:05.646Z,3.97
2018-01-22T09:03:38.120Z,4.77
2018-01-22T09:06:11.449Z,3.30
2018-01-22T09:08:43.915Z,3.17
2018-01-22T09:11:16.506Z,3.37
2018-01-22T09:13:49.325Z,3.27
2018-01-22T09:16:21.794Z,3.60
2018-01-22T09:18:54.338Z,3.13
2018-01-22T09:21:27.675Z,2.53
2018-01-22T09:24:01.173Z,3.97
2018-01-22T09:26:34.570Z,3.10
2018-01-22T09:29:07.076Z,3.00
2018-01-22T09:31:39.491Z,5.10
2018-01-22T09:34:12.624Z,3.73
2018-01-22T09:36:45.256Z,3.30
2018-01-22T09:39:17.850Z,4.20
2018-01-22T09:41:51.248Z,5.00
2018-01-22T09:44:23.664Z,3.77
2018-01-22T09:46:56.266Z,3.50
2018-01-22T09:49:29.068Z,3.80
2018-01-22T09:52:03.108Z,4.50
2018-01-22T09:54:36.031Z,4.30
2018-01-22T09:57:08.515Z,4.30
2018-01-22T09:59:42.046Z,3.73
2018-01-22T10:02:14.737Z,4.83
2018-01-22T10:04:47.458Z,3.30
2018-01-22T10:07:19.999Z,4.20
2018-01-22T10:09:52.606Z,3.90
2018-01-22T10:12:25.097Z,3.70
2018-01-22T10:14:59.448Z,4.83
2018-01-22T10:17:32.770Z,4.10
2018-01-22T10:20:05.468Z,3.73
2018-01-22T10:22:38.850Z,5.00
2018-01-22T10:25:12.371Z,4.10
2018-01-22T10:27:45.072Z,3.90
2018-01-22T10:30:17.638Z,6.10
2018-01-22T10:32:51.118Z,5.70
2018-01-22T10:35:25.207Z,4.87
2018-01-22T10:37:59.039Z,4.10
2018-01-22T10:40:32.241Z,5.00
2018-01-22T10:43:04.788Z,4.53
2018-01-22T10:45:38.726Z,6.60
2018-01-22T10:48:11.557Z,5.57
2018-01-22T10:50:44.050Z,4.80
2018-01-22T10:53:18.289Z,5.50
2018-01-22T10:55:50.922Z,5.03
2018-01-22T10:58:25.238Z,4.40
2018-01-22T11:00:58.925Z,4.70
2018-01-22T11:03:31.509Z,4.93
2018-01-22T11:06:04.800Z,4.40
2018-01-22T11:08:37.445Z,5.77
2018-01-22T11:11:09.890Z,4.87
2018-01-22T11:13:42.468Z,5.00
2018-01-22T11:16:15.915Z,4.90
2018-01-22T11:18:49.107Z,4.00
2018-01-22T11:21:21.908Z,3.73
2018-01-22T11:23:54.303Z,3.77
2018-01-22T11:26:26.989Z,4.13
2018-01-22T11:28:59.529Z,3.37
2018-01-22T11:31:32.976Z,3.87
2018-01-22T11:34:06.360Z,4.13
2018-01-22T11:36:38.815Z,3.50
2018-01-22T11:39:11.255Z,3.10
2018-01-22T11:41:43.848Z,2.93
2018-01-22T11:44:16.275Z,3.83
2018-01-22T11:46:49.506Z,2.60
2018-01-22T11:49:22.073Z,2.47
2018-01-22T11:51:55.442Z,1.90
2018-01-22T11:54:28.398Z,1.50
2018-01-22T11:57:00.944Z,1.53
2018-01-22T11:59:33.492Z,1.53
2018-01-22T12:02:06.122Z,1.30
2018-01-22T12:04:39.555Z,1.50
2018-01-22T12:07:12.170Z,1.40
2018-01-22T12:09:45.556Z,1.27
2018-01-22T12:12:18.541Z,2.13
2018-01-22T12:14:51.950Z,1.80
2018-01-22T12:17:25.304Z,2.33
2018-01-22T12:19:57.815Z,2.43
2018-01-22T12:22:30.365Z,2.40
2018-01-22T12:25:02.905Z,1.80
2018-01-22T12:27:35.415Z,1.20
2018-01-22T12:30:07.902Z,1.10
2018-01-22T12:32:41.343Z,1.00
2018-01-22T12:35:13.834Z,1.10
2018-01-22T12:37:46.364Z,1.00
2018-01-22T12:40:18.865Z,0.90
2018-01-22T12:42:53.046Z,0.97
2018-01-22T12:45:25.763Z,1.00
2018-01-22T12:47:58.262Z,1.00
2018-01-22T12:50:31.678Z,0.80
2018-01-22T12:53:05.093Z,0.93
2018-01-22T12:55:37.762Z,1.03
2018-01-22T12:58:10.333Z,0.80
2018-01-22T13:00:42.937Z,1.27
2018-01-22T13:03:15.429Z,1.40
2018-01-22T13:05:47.802Z,2.43
2018-01-22T13:08:20.305Z,1.60
2018-01-22T13:10:53.653Z,1.20
2018-01-22T13:13:27.829Z,1.53
2018-01-22T13:16:01.351Z,1.50
2018-01-22T13:18:34.214Z,1.40
2018-01-22T13:21:06.609Z,1.50
2018-01-22T13:23:40.102Z,1.40
2018-01-22T13:26:12.901Z,1.20
2018-01-22T13:28:45.466Z,1.47
2018-01-22T13:31:18.153Z,1.33
2018-01-22T13:33:51.715Z,1.80
2018-01-22T13:36:25.137Z,1.03
2018-01-22T13:38:57.755Z,1.20
2018-01-22T13:41:31.686Z,0.70
2018-01-22T13:44:04.348Z,1.37
2018-01-22T13:46:36.851Z,0.83
2018-01-22T13:49:09.438Z,0.70
2018-01-22T13:51:42.861Z,0.90
2018-01-22T13:54:15.309Z,0.87
2018-01-22T13:56:47.810Z,1.10
2018-01-22T13:59:21.201Z,1.17
2018-01-22T14:01:54.580Z,0.80
2018-01-22T14:04:27.057Z,0.90
2018-01-22T14:06:59.538Z,1.47
2018-01-22T14:09:32.153Z,0.80
2018-01-22T14:12:05.537Z,1.20
2018-01-22T14:14:38.022Z,0.80
2018-01-22T14:17:11.287Z,1.00
2018-01-22T14:19:44.733Z,0.90
2018-01-22T14:22:17.485Z,0.80
2018-01-22T14:24:51.622Z,0.80
2018-01-22T14:27:24.247Z,0.70
2018-01-22T14:29:57.623Z,0.70
2018-01-22T14:32:31.763Z,0.70
2018-01-22T14:35:07.332Z,0.90
2018-01-22T14:37:40.591Z,0.80
2018-01-22T14:40:13.263Z,0.90
2018-01-22T14:42:45.685Z,0.80
2018-01-22T14:45:18.934Z,1.10
2018-01-22T14:47:51.481Z,0.70
2018-01-22T14:50:24.986Z,2.17
2018-01-22T14:52:58.470Z,1.00
2018-01-22T14:55:31.806Z,0.80
2018-01-22T14:58:05.241Z,0.80
2018-01-22T15:00:38.685Z,0.93
2018-01-22T15:03:11.244Z,0.90
2018-01-22T15:05:43.703Z,0.90
2018-01-22T15:08:17.091Z,1.93
2018-01-22T15:10:51.394Z,0.90
2018-01-22T15:13:23.884Z,0.97
2018-01-22T15:15:56.492Z,0.90
2018-01-22T15:18:29.006Z,0.90
2018-01-22T15:21:01.546Z,1.47
2018-01-22T15:23:34.011Z,0.80
2018-01-22T15:26:06.565Z,1.00
2018-01-22T15:28:40.751Z,0.87
2018-01-22T15:31:13.542Z,0.90
2018-01-22T15:33:46.129Z,1.10
2018-01-22T15:36:19.495Z,0.90
2018-01-22T15:38:51.971Z,0.90
2018-01-22T15:41:26.277Z,0.90
2018-01-22T15:43:58.885Z,1.00
2018-01-22T15:46:31.456Z,1.10
2018-01-22T15:49:04.737Z,0.87
2018-01-22T15:51:37.570Z,0.80
2018-01-22T15:54:10.089Z,1.00
2018-01-22T15:56:43.906Z,1.30
2018-01-22T15:59:17.708Z,1.00
2018-01-22T16:01:50.537Z,1.20
2018-01-22T16:04:23.970Z,1.80
2018-01-22T16:06:57.243Z,1.20
2018-01-22T16:09:29.793Z,1.90
2018-01-22T16:12:04.891Z,2.93
2018-01-22T16:14:37.856Z,2.20
2018-01-22T16:17:11.060Z,2.70
2018-01-22T16:19:49.904Z,2.10
2018-01-22T16:22:23.233Z,2.30
2018-01-22T16:24:55.928Z,1.20
2018-01-22T16:27:29.938Z,1.40
2018-01-22T16:30:02.761Z,1.57
2018-01-22T16:32:36.025Z,2.60
2018-01-22T16:35:09.408Z,2.40
2018-01-22T16:37:41.943Z,2.10
2018-01-22T16:40:16.113Z,2.80
2018-01-22T16:42:48.751Z,3.73
2018-01-22T16:45:22.053Z,2.60
2018-01-22T16:47:56.652Z,2.10
2018-01-22T16:50:30.030Z,1.50
2018-01-22T16:53:02.815Z,1.37
2018-01-22T16:55:35.443Z,1.60
2018-01-22T16:58:07.933Z,1.77
2018-01-22T17:00:41.470Z,1.60
2018-01-22T17:03:14.737Z,1.90
2018-01-22T17:05:47.442Z,2.07
2018-01-22T17:08:20.048Z,1.57
2018-01-22T17:10:53.566Z,1.70
2018-01-22T17:13:27.735Z,1.90
2018-01-22T17:16:00.585Z,3.00
2018-01-22T17:18:33.014Z,2.57
2018-01-22T17:21:06.438Z,2.40
2018-01-22T17:23:39.841Z,2.90
2018-01-22T17:26:12.439Z,3.67
2018-01-22T17:28:45.816Z,2.80
2018-01-22T17:31:19.213Z,2.57
2018-01-22T17:33:52.535Z,2.17
2018-01-22T17:36:26.144Z,1.90
2018-01-22T17:39:00.134Z,2.23
2018-01-22T17:41:32.790Z,3.00
2018-01-22T17:44:05.268Z,1.83
2018-01-22T17:46:38.664Z,1.73
2018-01-22T17:49:11.970Z,1.50
2018-01-22T17:51:45.353Z,2.30
2018-01-22T17:54:18.814Z,1.83
2018-01-22T17:56:51.505Z,2.53
2018-01-22T17:59:24.783Z,2.23
2018-01-22T18:01:58.328Z,1.80
2018-01-22T18:04:31.715Z,2.00
2018-01-22T18:07:05.190Z,2.53
2018-01-22T18:09:38.647Z,2.47
2018-01-22T18:12:12.110Z,2.50
2018-01-22T18:14:45.345Z,2.30
2018-01-22T18:17:18.789Z,2.20
2018-01-22T18:19:52.366Z,1.90
2018-01-22T18:22:25.700Z,3.50
2018-01-22T18:24:58.994Z,3.83
2018-01-22T18:27:31.651Z,2.73
2018-01-22T18:30:04.188Z,2.93
2018-01-22T18:32:36.804Z,2.80
2018-01-22T18:35:10.140Z,3.33
2018-01-22T18:37:43.764Z,2.43
2018-01-22T18:40:16.696Z,2.73
2018-01-22T18:42:49.513Z,3.10
2018-01-22T18:45:22.600Z,3.33
2018-01-22T18:47:55.188Z,2.97
2018-01-22T18:50:27.762Z,3.03
2018-01-22T18:53:02.062Z,2.90
2018-01-22T18:55:34.533Z,4.47
2018-01-22T18:58:07.165Z,2.60
2018-01-22T19:00:41.357Z,3.77
2018-01-22T19:03:14.806Z,2.70
2018-01-22T19:05:47.494Z,2.80
2018-01-22T19:08:20.783Z,3.20
2018-01-22T19:10:54.207Z,3.07
2018-01-22T19:13:26.666Z,4.43
2018-01-22T19:16:00.110Z,4.13
2018-01-22T19:18:34.254Z,3.73
2018-01-22T19:21:07.053Z,4.03
2018-01-22T19:23:40.281Z,3.50
2018-01-22T19:26:13.111Z,4.20
2018-01-22T19:28:46.470Z,4.67
2018-01-22T19:31:19.192Z,3.87
2018-01-22T19:33:51.826Z,3.67
2018-01-22T19:36:25.397Z,3.43
2018-01-22T19:38:58.722Z,4.20
2018-01-22T19:41:32.326Z,5.70
2018-01-22T19:44:06.380Z,4.00
2018-01-22T19:46:39.047Z,4.27
2018-01-22T19:49:12.665Z,4.40
2018-01-22T19:51:46.050Z,3.97
2018-01-22T19:54:20.317Z,4.00
2018-01-22T19:56:52.974Z,5.77
2018-01-22T19:59:26.348Z,5.57
2018-01-22T20:02:00.580Z,8.07
2018-01-22T20:04:33.224Z,7.10
2018-01-22T20:07:07.565Z,8.27
2018-01-22T20:09:41.846Z,7.73
2018-01-22T20:12:14.663Z,7.37
2018-01-22T20:14:49.111Z,10.00
2018-01-22T20:17:22.668Z,9.10
2018-01-22T20:19:56.633Z,6.00
2018-01-22T20:22:29.435Z,4.90
2018-01-22T20:25:04.221Z,3.53
2018-01-22T20:27:38.172Z,3.73
2018-01-22T20:30:11.782Z,5.50
2018-01-22T20:32:44.757Z,4.40
2018-01-22T20:35:18.098Z,3.03
2018-01-22T20:37:50.725Z,4.00
2018-01-22T20:40:24.385Z,6.13
2018-01-22T20:42:57.659Z,5.10
2018-01-22T20:45:31.055Z,4.40
2018-01-22T20:48:04.461Z,4.03
2018-01-22T20:50:37.131Z,4.40
2018-01-22T20:53:10.516Z,4.23
2018-01-22T20:55:43.923Z,5.93
2018-01-22T20:58:19.032Z,5.97
2018-01-22T21:00:52.500Z,5.70
2018-01-22T21:03:25.380Z,5.30
2018-01-22T21:05:58.759Z,5.73
2018-01-22T21:08:31.383Z,6.80
2018-01-22T21:11:04.463Z,6.47
2018-01-22T21:13:37.742Z,5.47
2018-01-22T21:16:11.055Z,6.57
2018-01-22T21:18:44.565Z,6.80
2018-01-22T21:21:18.537Z,6.47
2018-01-22T21:23:51.393Z,7.20
2018-01-22T21:26:24.741Z,7.50
2018-01-22T21:28:58.943Z,7.90
2018-01-22T21:31:31.390Z,8.87
2018-01-22T21:34:04.229Z,8.47
2018-01-22T21:36:37.389Z,9.37
2018-01-22T21:39:10.830Z,8.10
2018-01-22T21:41:43.360Z,9.37
2018-01-22T21:44:15.874Z,8.27
2018-01-22T21:46:48.426Z,9.03
2018-01-22T21:49:22.905Z,7.17
2018-01-22T21:51:57.101Z,9.50
2018-01-22T21:54:29.841Z,9.40
2018-01-22T21:57:02.480Z,8.50
2018-01-22T21:59:35.147Z,9.90
2018-01-22T22:02:08.522Z,11.80
2018-01-22T22:04:41.136Z,11.10
2018-01-22T22:07:13.580Z,10.50
2018-01-22T22:09:46.936Z,10.70
2018-01-22T22:12:20.169Z,9.93
2018-01-22T22:14:52.869Z,10.50
2018-01-22T22:17:26.451Z,12.53
2018-01-22T22:19:59.661Z,12.10
2018-01-22T22:22:33.095Z,11.07
2018-01-22T22:25:06.300Z,12.80
2018-01-22T22:27:39.015Z,10.27
2018-01-22T22:30:11.478Z,12.23
2018-01-22T22:32:44.002Z,10.80
2018-01-22T22:35:17.566Z,13.20
2018-01-22T22:37:51.649Z,14.10
2018-01-22T22:40:24.344Z,12.20
2018-01-22T22:42:57.901Z,9.83
2018-01-22T22:45:31.236Z,13.37
2018-01-22T22:48:04.410Z,13.80
2018-01-22T22:50:37.126Z,13.43
2018-01-22T22:53:09.853Z,11.57
2018-01-22T22:55:42.681Z,11.67
2018-01-22T22:58:16.781Z,13.57
2018-01-22T23:00:50.236Z,12.23
2018-01-22T23:03:22.974Z,11.67
2018-01-22T23:05:56.363Z,13.30
2018-01-22T23:08:29.163Z,13.40
2018-01-22T23:11:03.369Z,13.47
2018-01-22T23:13:36.027Z,14.63
2018-01-22T23:16:08.538Z,13.40
2018-01-22T23:18:41.208Z,13.00
2018-01-22T23:21:13.769Z,12.53
2018-01-22T23:23:47.151Z,14.20
2018-01-22T23:26:20.393Z,12.80
2018-01-22T23:28:53.882Z,12.20
2018-01-22T23:31:27.215Z,9.00
2018-01-22T23:34:01.333Z,9.37
2018-01-22T23:36:34.174Z,7.60
2018-01-22T23:39:06.749Z,7.93
2018-01-22T23:41:39.299Z,6.80
2018-01-22T23:44:12.614Z,6.90
2018-01-22T23:46:45.803Z,7.20
2018-01-22T23:49:18.561Z,8.27
2018-01-22T23:51:51.888Z,6.47
2018-01-22T23:54:25.354Z,8.03
2018-01-22T23:56:58.091Z,8.30
2018-01-22T23:59:31.486Z,9.23
